Ms Janet — WDI5213 — position and weather

sailwx.info

Track history (hours):
 
Tides and Currents Weather Stations Pressure Air Temp Water Temp Dewpoint Dewpoint Depression Visibility Wind Speed Wind Dir Waves Ship Positions

Ms Janet

Owner: Ms Janet, LLC., Norfolk, VA. More information available from US FCC via Universal Licensing System and Coast Guard Vessel Documentation Center.

Last reported at 2017-Oct-18 13:00 UTC. Time now 2017-Oct-18 13:02 UTC.
Position N 39°13' W 076°32'.

Length 29 m; draft 4 m.

Type: Tug. MMSI: 367706270.

Date/timePositionNaut miles runAvg speedWind from/ knotsBaromVisibWave heightAir tempDewpointWater temp
2017-Oct-18 13:00N 39°13' W 076°32'0 0.0
2017-Oct-18 12:30N 39°13' W 076°32'0 0.0
2017-Oct-18 12:00N 39°13' W 076°32'0 0.0
2017-Oct-18 11:30N 39°13' W 076°32'0 0.0
2017-Oct-18 11:00N 39°13' W 076°32'0 0.0
2017-Oct-18 10:31N 39°13' W 076°32'0 0.0
2017-Oct-18 10:01N 39°13' W 076°32'0 0.0
2017-Oct-18 09:30N 39°13' W 076°32'0 0.0
2017-Oct-18 09:00N 39°13' W 076°32'0 0.0
2017-Oct-18 08:30N 39°13' W 076°32'0 0.0
2017-Oct-18 08:00N 39°13' W 076°32'0 0.0
2017-Oct-18 07:30N 39°13' W 076°32'0 0.0
2017-Oct-18 07:01N 39°13' W 076°32'0 0.0
2017-Oct-18 06:30N 39°13' W 076°32'0 0.0
2017-Oct-18 06:00N 39°13' W 076°32'0 0.0
2017-Oct-18 05:30N 39°13' W 076°32'0 0.0
2017-Oct-18 05:00N 39°13' W 076°32'0 0.0
2017-Oct-18 04:30N 39°13' W 076°32'0 0.0
2017-Oct-18 04:00N 39°13' W 076°32'0 0.0
2017-Oct-18 03:30N 39°13' W 076°32'0 0.0
2017-Oct-18 03:00N 39°13' W 076°32'0 0.0
2017-Oct-18 02:30N 39°13' W 076°32'0 0.0
2017-Oct-18 02:00N 39°13' W 076°32'0 0.0
2017-Oct-18 01:30N 39°13' W 076°32'0 0.0
2017-Oct-18 00:40N 39°13' W 076°32'0 0.0
2017-Oct-18 00:30N 39°13' W 076°32'0 0.0
2017-Oct-17 23:47N 39°13' W 076°32'0 0.0
2017-Oct-17 23:22N 39°13' W 076°32'0 0.0
2017-Oct-17 22:56N 39°13' W 076°32'0 0.0
2017-Oct-17 22:29N 39°13' W 076°32'0 0.0
2017-Oct-17 22:00N 39°13' W 076°32'0 0.0
2017-Oct-17 21:30N 39°13' W 076°32'0 0.0
2017-Oct-17 21:00N 39°13' W 076°32'0 0.0
2017-Oct-17 20:30N 39°13' W 076°32'0 0.0
2017-Oct-17 20:00N 39°13' W 076°32'0 0.0
2017-Oct-17 19:30N 39°13' W 076°32'0 0.0
2017-Oct-17 19:00N 39°13' W 076°32'1 2.0
2017-Oct-17 18:30N 39°13' W 076°34'1 1.8
2017-Oct-17 18:00N 39°13' W 076°35'3 5.5
2017-Oct-17 17:30N 39°13' W 076°31'2 3.7
2017-Oct-17 17:00N 39°11' W 076°31'0 0.1
2017-Oct-17 16:30N 39°11' W 076°31'0 0.4
2017-Oct-17 16:00N 39°11' W 076°31'1 1.3
2017-Oct-17 15:30N 39°11' W 076°31'3 5.0
2017-Oct-17 15:00N 39°13' W 076°33'1 2.9
2017-Oct-17 14:30N 39°13' W 076°35'2 3.7
2017-Oct-17 13:59N 39°13' W 076°32'0 0.0
2017-Oct-17 13:29N 39°13' W 076°32'0 0.0
2017-Oct-17 13:00N 39°13' W 076°32'0 0.0
2017-Oct-17 12:30N 39°13' W 076°32'1 1.1
2017-Oct-17 12:00N 39°13' W 076°33'2 3.0
2017-Oct-17 11:30N 39°13' W 076°35'3 5.4
2017-Oct-17 11:00N 39°13' W 076°31'2 3.6
2017-Oct-17 10:30N 39°11' W 076°31'0 0.0
2017-Oct-17 10:00N 39°11' W 076°31'1 1.5
2017-Oct-17 09:30N 39°11' W 076°31'2 3.7
2017-Oct-17 09:00N 39°13' W 076°32'0 0.0
2017-Oct-17 08:29N 39°13' W 076°32'0 0.0
2017-Oct-17 07:55N 39°13' W 076°32'0 0.0
2017-Oct-17 07:30N 39°13' W 076°32'0 0.0
2017-Oct-17 06:59N 39°13' W 076°32'0 0.0
2017-Oct-17 06:29N 39°13' W 076°32'0 0.0
2017-Oct-17 05:53N 39°13' W 076°32'0 0.0
2017-Oct-17 05:28N 39°13' W 076°32'0 0.0
2017-Oct-17 04:23N 39°13' W 076°32'0 0.0
2017-Oct-17 03:53N 39°13' W 076°32'0 0.0
2017-Oct-17 03:16N 39°13' W 076°32'0 0.0
2017-Oct-17 02:58N 39°13' W 076°32'0 0.0
2017-Oct-17 02:29N 39°13' W 076°32'0 0.0
2017-Oct-17 01:58N 39°13' W 076°32'0 0.0
2017-Oct-17 01:30N 39°13' W 076°32'0 0.0
2017-Oct-17 00:57N 39°13' W 076°32'0 0.0
2017-Oct-17 00:28N 39°13' W 076°32'0 0.0
2017-Oct-17 00:00N 39°13' W 076°32'0 0.0
2017-Oct-16 23:24N 39°13' W 076°32'2 2.4
2017-Oct-16 22:33N 39°11' W 076°31'0 0.1
2017-Oct-16 22:27N 39°11' W 076°31'0 0.0
2017-Oct-16 20:18N 39°11' W 076°31'1 1.5
2017-Oct-16 19:55N 39°11' W 076°31'2 4.9
2017-Oct-16 19:30N 39°13' W 076°32'2 4.2
2017-Oct-16 19:00N 39°13' W 076°35'0 0.1
2017-Oct-16 18:28N 39°13' W 076°35'0 0.0
2017-Oct-16 18:00N 39°13' W 076°35'0 0.0
2017-Oct-16 17:30N 39°13' W 076°35'2 0.4
2017-Oct-16 13:02N 39°13' W 076°32'0 1.5
2017-Oct-16 12:57N 39°13' W 076°32'2 4.6
2017-Oct-16 12:30N 39°14' W 076°35'0 0.0
2017-Oct-16 12:00N 39°14' W 076°35'0 0.0
2017-Oct-16 11:30N 39°14' W 076°35'0 0.0
2017-Oct-16 11:00N 39°14' W 076°35'0 0.0
2017-Oct-16 10:30N 39°14' W 076°35'0 0.0
2017-Oct-16 10:00N 39°14' W 076°35'0 0.0
2017-Oct-16 09:30N 39°14' W 076°35'0 0.0
2017-Oct-16 09:00N 39°14' W 076°35'0 0.0
2017-Oct-16 08:30N 39°14' W 076°35'0 0.0
2017-Oct-16 08:00N 39°14' W 076°35'0 0.0
2017-Oct-16 07:30N 39°14' W 076°35'0 0.0
2017-Oct-16 07:00N 39°14' W 076°35'0 0.0
2017-Oct-16 06:30N 39°14' W 076°35'0 0.0
2017-Oct-16 06:00N 39°14' W 076°35'0 0.0
2017-Oct-16 05:30N 39°14' W 076°35'0 0.0
2017-Oct-16 05:00N 39°14' W 076°35'0 0.0
2017-Oct-16 04:30N 39°14' W 076°35'0 0.0
2017-Oct-16 04:00N 39°14' W 076°35'0 0.0
2017-Oct-16 03:31N 39°14' W 076°35'0 0.0
2017-Oct-16 03:00N 39°14' W 076°35'0 0.0
2017-Oct-16 02:30N 39°14' W 076°35'0 0.0
2017-Oct-16 02:00N 39°14' W 076°35'0 0.0
2017-Oct-16 01:31N 39°14' W 076°35'0 0.0
2017-Oct-16 01:00N 39°14' W 076°35'0 0.0
2017-Oct-16 00:30N 39°14' W 076°35'0 0.0
2017-Oct-16 00:00N 39°14' W 076°35'0 0.0
2017-Oct-15 23:30N 39°14' W 076°35'0 0.0
2017-Oct-15 23:00N 39°14' W 076°35'2 4.2
2017-Oct-15 22:30N 39°13' W 076°32'0 0.1
2017-Oct-15 20:17N 39°13' W 076°32'0 0.0
2017-Oct-15 20:00N 39°13' W 076°32'0 0.0
2017-Oct-15 19:29N 39°13' W 076°32'2 3.8
2017-Oct-15 19:00N 39°13' W 076°35'1 1.7
2017-Oct-15 18:30N 39°13' W 076°34'3 3.6
2017-Oct-15 17:39N 39°11' W 076°31'0 0.3
2017-Oct-15 17:21N 39°11' W 076°31'0 0.4
2017-Oct-15 16:57N 39°11' W 076°31'0 0.2
2017-Oct-15 16:01N 39°11' W 076°31'0 1.2
2017-Oct-15 15:59N 39°11' W 076°31'1 3.1
2017-Oct-15 15:30N 39°12' W 076°31'3 5.7
2017-Oct-15 15:00N 39°13' W 076°35'0 0.3
2017-Oct-15 14:00N 39°14' W 076°35'0 0.0
2017-Oct-15 13:30N 39°14' W 076°35'0 0.0
2017-Oct-15 13:00N 39°14' W 076°35'0 0.0
2017-Oct-15 12:30N 39°14' W 076°35'0 0.0
2017-Oct-15 12:00N 39°14' W 076°35'0 0.0
2017-Oct-15 11:30N 39°14' W 076°35'0 0.0
2017-Oct-15 11:00N 39°14' W 076°35'2 4.0
2017-Oct-15 10:30N 39°13' W 076°32'2 3.5
2017-Oct-15 09:59N 39°13' W 076°35'0 0.0
2017-Oct-15 09:29N 39°13' W 076°35'0 0.0
2017-Oct-15 09:00N 39°13' W 076°35'0 0.0
2017-Oct-15 08:28N 39°13' W 076°35'0 0.0
2017-Oct-15 07:47N 39°13' W 076°35'0 0.0
2017-Oct-15 07:04N 39°13' W 076°35'0 0.1
2017-Oct-15 06:56N 39°13' W 076°35'0 0.0
2017-Oct-15 06:17N 39°13' W 076°35'0 0.0
2017-Oct-15 05:58N 39°13' W 076°35'2 4.4
2017-Oct-15 05:30N 39°13' W 076°32'2 4.9
2017-Oct-15 05:00N 39°11' W 076°31'0 0.3
2017-Oct-15 04:30N 39°11' W 076°31'0 0.6
2017-Oct-15 04:00N 39°11' W 076°31'2 4.1
2017-Oct-15 03:30N 39°13' W 076°32'2 4.5
2017-Oct-15 03:00N 39°13' W 076°35'0 0.0
2017-Oct-15 02:30N 39°13' W 076°35'0 0.0
2017-Oct-15 02:00N 39°13' W 076°35'0 0.0
2017-Oct-15 01:30N 39°13' W 076°35'0 0.0
2017-Oct-15 01:00N 39°13' W 076°35'0 0.0
2017-Oct-15 00:30N 39°13' W 076°35'0 0.0
2017-Oct-15 00:00N 39°13' W 076°35'0 0.0
2017-Oct-14 23:30N 39°13' W 076°35'2 3.1
2017-Oct-14 22:53N 39°13' W 076°32'0 0.0
2017-Oct-14 22:10N 39°13' W 076°32'0 0.0
2017-Oct-14 21:56N 39°13' W 076°32'0 0.0
2017-Oct-14 21:30N 39°13' W 076°32'0 0.0
2017-Oct-14 20:59N 39°13' W 076°32'0 0.0
2017-Oct-14 20:30N 39°13' W 076°32'0 0.0
2017-Oct-14 20:00N 39°13' W 076°32'2 4.1
2017-Oct-14 19:30N 39°14' W 076°35'0 0.0
2017-Oct-14 19:00N 39°14' W 076°35'0 0.0
2017-Oct-14 18:30N 39°14' W 076°35'0 0.0
2017-Oct-14 18:00N 39°14' W 076°35'0 0.0
2017-Oct-14 17:30N 39°14' W 076°35'0 0.0
2017-Oct-14 17:00N 39°14' W 076°35'0 0.0
2017-Oct-14 16:30N 39°14' W 076°35'0 0.0
2017-Oct-14 16:00N 39°14' W 076°35'0 0.0
2017-Oct-14 15:30N 39°14' W 076°35'0 0.0
2017-Oct-14 15:00N 39°14' W 076°35'0 0.0
2017-Oct-14 14:30N 39°14' W 076°35'0 0.0
2017-Oct-14 14:00N 39°14' W 076°35'0 0.0
2017-Oct-14 13:30N 39°14' W 076°35'0 0.0
2017-Oct-14 13:00N 39°14' W 076°35'0 0.0
2017-Oct-14 12:30N 39°14' W 076°35'0 0.0
2017-Oct-14 12:00N 39°14' W 076°35'0 0.0
2017-Oct-14 11:30N 39°14' W 076°35'1 1.8
2017-Oct-14 11:00N 39°13' W 076°34'1 2.2
2017-Oct-14 10:30N 39°13' W 076°32'0 0.0
2017-Oct-14 10:00N 39°13' W 076°32'0 0.0
2017-Oct-14 09:27N 39°13' W 076°32'0 0.0
2017-Oct-14 09:00N 39°13' W 076°32'0 0.0
2017-Oct-14 08:28N 39°13' W 076°32'0 0.0
2017-Oct-14 07:46N 39°13' W 076°32'0 0.0
2017-Oct-14 07:30N 39°13' W 076°32'0 0.0
2017-Oct-14 06:57N 39°13' W 076°32'0 0.0
2017-Oct-14 06:27N 39°13' W 076°32'0 0.0
2017-Oct-14 06:00N 39°13' W 076°32'0 0.0
2017-Oct-13 21:10N 39°13' W 076°32'0 0.0
2017-Oct-13 21:00N 39°13' W 076°32'0 0.0
2017-Oct-13 20:30N 39°13' W 076°32'0 0.0
2017-Oct-13 20:00N 39°13' W 076°32'0 0.0
2017-Oct-13 19:30N 39°13' W 076°32'0 0.0
2017-Oct-13 19:00N 39°13' W 076°32'0 0.0
2017-Oct-13 18:30N 39°13' W 076°32'0 0.0
2017-Oct-13 16:47N 39°13' W 076°32'0 0.0
2017-Oct-13 16:29N 39°13' W 076°32'0 0.0
2017-Oct-13 15:20N 39°13' W 076°32'0 0.0
2017-Oct-13 14:56N 39°13' W 076°32'0 0.0
2017-Oct-13 14:22N 39°13' W 076°32'0 0.0
2017-Oct-13 13:57N 39°13' W 076°32'0 0.0
2017-Oct-13 13:27N 39°13' W 076°32'0 0.0
2017-Oct-13 12:59N 39°13' W 076°32'0 0.0
2017-Oct-13 12:29N 39°13' W 076°32'0 0.0
2017-Oct-13 12:00N 39°13' W 076°32'0 0.0
2017-Oct-13 11:16N 39°13' W 076°32'0 0.0
2017-Oct-13 11:00N 39°13' W 076°32'0 0.0
2017-Oct-13 10:30N 39°13' W 076°32'0 0.0
2017-Oct-13 09:59N 39°13' W 076°32'0 0.0
2017-Oct-13 09:30N 39°13' W 076°32'0 0.0
2017-Oct-13 09:00N 39°13' W 076°32'0 0.0
2017-Oct-13 08:30N 39°13' W 076°32'0 0.0
2017-Oct-13 07:57N 39°13' W 076°32'0 0.0
2017-Oct-13 07:29N 39°13' W 076°32'0 0.0
2017-Oct-13 07:00N 39°13' W 076°32'0 0.0
2017-Oct-13 06:30N 39°13' W 076°32'0 0.0
2017-Oct-13 06:00N 39°13' W 076°32'0 0.0
2017-Oct-13 05:30N 39°13' W 076°32'0 0.0
2017-Oct-13 04:53N 39°13' W 076°32'0 0.0
2017-Oct-13 04:30N 39°13' W 076°32'0 0.0
2017-Oct-13 03:53N 39°13' W 076°32'0 0.0
2017-Oct-13 01:40N 39°13' W 076°32'0 0.0
2017-Oct-13 01:30N 39°13' W 076°32'0 0.0
2017-Oct-13 01:00N 39°13' W 076°32'0 0.0
2017-Oct-13 00:30N 39°13' W 076°32'0 0.0
2017-Oct-12 23:59N 39°13' W 076°32'0 0.0
2017-Oct-12 23:16N 39°13' W 076°32'0 0.0
2017-Oct-12 22:58N 39°13' W 076°32'0 0.0
2017-Oct-12 22:19N 39°13' W 076°32'0 0.0
2017-Oct-12 21:56N 39°13' W 076°32'0 0.0
2017-Oct-12 21:24N 39°13' W 076°32'0 0.0
2017-Oct-12 21:00N 39°13' W 076°32'0 0.0
2017-Oct-12 20:30N 39°13' W 076°32'0 0.0
2017-Oct-12 20:00N 39°13' W 076°32'0 0.0
2017-Oct-12 19:30N 39°13' W 076°32'0 0.0
2017-Oct-12 18:46N 39°13' W 076°32'0 0.0
2017-Oct-12 17:26N 39°13' W 076°32'0 0.0
2017-Oct-12 16:51N 39°13' W 076°32'0 0.0
2017-Oct-12 16:12N 39°13' W 076°32'0 0.0
2017-Oct-12 16:00N 39°13' W 076°32'0 0.0
2017-Oct-12 14:29N 39°13' W 076°32'0 0.0
2017-Oct-12 14:00N 39°13' W 076°32'0 0.0
2017-Oct-12 13:13N 39°13' W 076°32'0 0.0
2017-Oct-12 13:00N 39°13' W 076°32'0 0.0
2017-Oct-12 12:30N 39°13' W 076°32'0 0.0
2017-Oct-12 12:00N 39°13' W 076°32'0 0.0
2017-Oct-12 11:30N 39°13' W 076°32'0 0.0
2017-Oct-12 11:00N 39°13' W 076°32'0 0.0
2017-Oct-12 10:30N 39°13' W 076°32'0 0.0
2017-Oct-12 10:00N 39°13' W 076°32'0 0.0
2017-Oct-12 09:30N 39°13' W 076°32'0 0.0
2017-Oct-12 09:00N 39°13' W 076°32'0 0.0
2017-Oct-12 08:29N 39°13' W 076°32'0 0.0
2017-Oct-12 08:00N 39°13' W 076°32'0 0.0
2017-Oct-12 07:30N 39°13' W 076°32'0 0.0
2017-Oct-12 07:00N 39°13' W 076°32'0 0.0
2017-Oct-12 06:30N 39°13' W 076°32'0 0.0
2017-Oct-12 03:22N 39°13' W 076°32'0 0.0
2017-Oct-12 02:58N 39°13' W 076°32'0 0.0
2017-Oct-12 02:30N 39°13' W 076°32'0 0.0
2017-Oct-12 02:00N 39°13' W 076°32'0 0.0
2017-Oct-12 01:29N 39°13' W 076°32'0 0.0
2017-Oct-12 01:00N 39°13' W 076°32'0 0.0
2017-Oct-12 00:30N 39°13' W 076°32'0 0.0
2017-Oct-11 23:59N 39°13' W 076°32'0 0.0
2017-Oct-11 22:32N 39°13' W 076°32'0 0.2
2017-Oct-11 22:29N 39°13' W 076°32'0 0.0
2017-Oct-11 21:36N 39°13' W 076°32'0 0.0
2017-Oct-11 21:25N 39°13' W 076°32'0 0.0
2017-Oct-11 20:55N 39°13' W 076°32'0 0.0
2017-Oct-11 20:30N 39°13' W 076°32'0 0.0
2017-Oct-11 20:00N 39°13' W 076°32'0 0.0
2017-Oct-11 19:28N 39°13' W 076°32'0 0.0
2017-Oct-11 19:00N 39°13' W 076°32'0 0.0
2017-Oct-11 18:30N 39°13' W 076°32'0 0.3
2017-Oct-11 18:00N 39°13' W 076°32'2 3.7
2017-Oct-11 17:30N 39°12' W 076°31'1 1.5
2017-Oct-11 17:00N 39°11' W 076°31'2 0.1
2017-Oct-10 23:58N 39°13' W 076°32'0 0.0
2017-Oct-10 18:35N 39°13' W 076°32'0 0.0
2017-Oct-10 18:23N 39°13' W 076°32'0 0.5
2017-Oct-10 18:00N 39°13' W 076°32'0 0.4
2017-Oct-10 17:30N 39°13' W 076°32'0 0.3
2017-Oct-10 17:00N 39°13' W 076°32'0 0.1
2017-Oct-10 15:55N 39°13' W 076°32'0 0.0
2017-Oct-10 15:26N 39°13' W 076°32'0 0.0
2017-Oct-10 14:55N 39°13' W 076°32'0 0.0
2017-Oct-10 14:00N 39°13' W 076°32'0 0.0
2017-Oct-10 13:30N 39°13' W 076°32'0 0.0
2017-Oct-10 13:00N 39°13' W 076°32'0 0.0
2017-Oct-10 12:30N 39°13' W 076°32'0 0.0
2017-Oct-10 12:00N 39°13' W 076°32'0 0.0
2017-Oct-10 11:29N 39°13' W 076°32'0 0.0
2017-Oct-10 11:00N 39°13' W 076°32'0 0.0
2017-Oct-10 10:30N 39°13' W 076°32'0 0.0
2017-Oct-10 10:00N 39°13' W 076°32'0 0.0
2017-Oct-10 09:31N 39°13' W 076°32'0 0.0
2017-Oct-10 09:00N 39°13' W 076°32'0 0.0
2017-Oct-10 08:30N 39°13' W 076°32'0 0.0
2017-Oct-10 08:00N 39°13' W 076°32'0 0.0
2017-Oct-10 07:30N 39°13' W 076°32'0 0.0
2017-Oct-10 07:00N 39°13' W 076°32'0 0.0
2017-Oct-10 06:30N 39°13' W 076°32'0 0.0
2017-Oct-10 06:00N 39°13' W 076°32'0 0.0
2017-Oct-10 05:30N 39°13' W 076°32'0 0.0
2017-Oct-10 05:01N 39°13' W 076°32'0 0.0
2017-Oct-10 04:30N 39°13' W 076°32'0 0.0
2017-Oct-10 04:01N 39°13' W 076°32'0 0.0
2017-Oct-10 03:30N 39°13' W 076°32'0 0.0
2017-Oct-10 03:00N 39°13' W 076°32'0 0.0
2017-Oct-10 02:30N 39°13' W 076°32'0 0.0
2017-Oct-10 02:00N 39°13' W 076°32'0 0.0
2017-Oct-10 01:30N 39°13' W 076°32'0 0.0
2017-Oct-10 01:00N 39°13' W 076°32'0 0.0
2017-Oct-10 00:31N 39°13' W 076°32'0 0.0
2017-Oct-10 00:00N 39°13' W 076°32'0 0.0
2017-Oct-09 23:30N 39°13' W 076°32'0 0.0
2017-Oct-09 23:01N 39°13' W 076°32'0 0.0
2017-Oct-09 22:25N 39°13' W 076°32'0 0.0
2017-Oct-09 21:56N 39°13' W 076°32'0 0.0
2017-Oct-09 21:05N 39°13' W 076°32'0 0.0
2017-Oct-09 20:59N 39°13' W 076°32'0 0.0
2017-Oct-09 20:28N 39°13' W 076°32'0 0.0
2017-Oct-09 19:50N 39°13' W 076°32'0 0.0
2017-Oct-09 19:21N 39°13' W 076°32'0 0.0
2017-Oct-09 19:00N 39°13' W 076°32'0 0.0
2017-Oct-09 18:25N 39°13' W 076°32'0 0.0
2017-Oct-09 17:57N 39°13' W 076°32'0 0.0
2017-Oct-09 17:30N 39°13' W 076°32'0 0.0
2017-Oct-09 17:00N 39°13' W 076°32'0 0.0
2017-Oct-09 16:29N 39°13' W 076°32'0 0.0
2017-Oct-09 15:58N 39°13' W 076°32'0 0.0
2017-Oct-09 15:20N 39°13' W 076°32'0 0.0
2017-Oct-09 14:58N 39°13' W 076°32'0 0.0
2017-Oct-09 10:24N 39°13' W 076°32'0 0.0
2017-Oct-09 09:57N 39°13' W 076°32'0 0.0
2017-Oct-09 09:30N 39°13' W 076°32'0 0.0
2017-Oct-09 08:54N 39°13' W 076°32'0 0.0
2017-Oct-09 08:29N 39°13' W 076°32'0 0.0
2017-Oct-09 08:00N 39°13' W 076°32'0 0.0
2017-Oct-09 07:29N 39°13' W 076°32'0 0.0
2017-Oct-09 06:57N 39°13' W 076°32'0 0.0
2017-Oct-09 06:29N 39°13' W 076°32'0 0.0
2017-Oct-09 05:59N 39°13' W 076°32'0 0.0
2017-Oct-09 05:28N 39°13' W 076°32'0 0.0
2017-Oct-09 04:33N 39°13' W 076°32'0 0.1
2017-Oct-09 04:23N 39°13' W 076°32'0 0.0
2017-Oct-09 03:50N 39°13' W 076°32'0 0.0
2017-Oct-09 03:30N 39°13' W 076°32'0 0.0
2017-Oct-09 02:46N 39°13' W 076°32'0 0.0
2017-Oct-09 02:13N 39°13' W 076°32'0 0.0
2017-Oct-09 01:50N 39°13' W 076°32'0 0.0
2017-Oct-09 01:10N 39°13' W 076°32'0 0.0
2017-Oct-09 00:47N 39°13' W 076°32'0 0.0
2017-Oct-08 23:13N 39°13' W 076°32'0 0.0
2017-Oct-08 22:55N 39°13' W 076°32'0 0.0
2017-Oct-08 22:17N 39°13' W 076°32'0 0.0
2017-Oct-08 21:56N 39°13' W 076°32'0 0.0
2017-Oct-08 21:24N 39°13' W 076°32'0 0.0
2017-Oct-08 20:49N 39°13' W 076°32'0 0.0
2017-Oct-08 20:21N 39°13' W 076°32'0 0.0
2017-Oct-08 19:58N 39°13' W 076°32'0 0.0
2017-Oct-08 19:27N 39°13' W 076°32'0 0.0
2017-Oct-08 18:57N 39°13' W 076°32'0 0.0
2017-Oct-08 18:24N 39°13' W 076°32'1 1.9
2017-Oct-08 17:59N 39°13' W 076°31'1 1.1
2017-Oct-08 17:18N 39°13' W 076°32'0 0.0
2017-Oct-08 16:53N 39°13' W 076°32'0 0.0
2017-Oct-08 13:45N 39°13' W 076°32'1 3.6
2017-Oct-08 13:31N 39°13' W 076°33'1 2.2
2017-Oct-08 13:01N 39°13' W 076°35'  
Track history (hours):
 
Tides and Currents Weather Stations Pressure Air Temp Water Temp Dewpoint Dewpoint Depression Visibility Wind Speed Wind Dir Waves Ship Positions

Ms Janet

Owner: Ms Janet, LLC., Norfolk, VA. More information available from US FCC via Universal Licensing System and Coast Guard Vessel Documentation Center.

Last reported at 2017-Oct-18 13:00 UTC. Time now 2017-Oct-18 13:02 UTC.
Position N 39°13' W 076°32'.

Length 29 m; draft 4 m.

Type: Tug. MMSI: 367706270.

Date/timePositionNaut miles runAvg speedWind from/ knotsBaromVisibWave heightAir tempDewpointWater temp
2017-Oct-18 13:00N 39°13' W 076°32'0 0.0
2017-Oct-18 12:30N 39°13' W 076°32'0 0.0
2017-Oct-18 12:00N 39°13' W 076°32'0 0.0
2017-Oct-18 11:30N 39°13' W 076°32'0 0.0
2017-Oct-18 11:00N 39°13' W 076°32'0 0.0
2017-Oct-18 10:31N 39°13' W 076°32'0 0.0
2017-Oct-18 10:01N 39°13' W 076°32'0 0.0
2017-Oct-18 09:30N 39°13' W 076°32'0 0.0
2017-Oct-18 09:00N 39°13' W 076°32'0 0.0
2017-Oct-18 08:30N 39°13' W 076°32'0 0.0
2017-Oct-18 08:00N 39°13' W 076°32'0 0.0
2017-Oct-18 07:30N 39°13' W 076°32'0 0.0
2017-Oct-18 07:01N 39°13' W 076°32'0 0.0
2017-Oct-18 06:30N 39°13' W 076°32'0 0.0
2017-Oct-18 06:00N 39°13' W 076°32'0 0.0
2017-Oct-18 05:30N 39°13' W 076°32'0 0.0
2017-Oct-18 05:00N 39°13' W 076°32'0 0.0
2017-Oct-18 04:30N 39°13' W 076°32'0 0.0
2017-Oct-18 04:00N 39°13' W 076°32'0 0.0
2017-Oct-18 03:30N 39°13' W 076°32'0 0.0
2017-Oct-18 03:00N 39°13' W 076°32'0 0.0
2017-Oct-18 02:30N 39°13' W 076°32'0 0.0
2017-Oct-18 02:00N 39°13' W 076°32'0 0.0
2017-Oct-18 01:30N 39°13' W 076°32'0 0.0
2017-Oct-18 00:40N 39°13' W 076°32'0 0.0
2017-Oct-18 00:30N 39°13' W 076°32'0 0.0
2017-Oct-17 23:47N 39°13' W 076°32'0 0.0
2017-Oct-17 23:22N 39°13' W 076°32'0 0.0
2017-Oct-17 22:56N 39°13' W 076°32'0 0.0
2017-Oct-17 22:29N 39°13' W 076°32'0 0.0
2017-Oct-17 22:00N 39°13' W 076°32'0 0.0
2017-Oct-17 21:30N 39°13' W 076°32'0 0.0
2017-Oct-17 21:00N 39°13' W 076°32'0 0.0
2017-Oct-17 20:30N 39°13' W 076°32'0 0.0
2017-Oct-17 20:00N 39°13' W 076°32'0 0.0
2017-Oct-17 19:30N 39°13' W 076°32'0 0.0
2017-Oct-17 19:00N 39°13' W 076°32'1 2.0
2017-Oct-17 18:30N 39°13' W 076°34'1 1.8
2017-Oct-17 18:00N 39°13' W 076°35'3 5.5
2017-Oct-17 17:30N 39°13' W 076°31'2 3.7
2017-Oct-17 17:00N 39°11' W 076°31'0 0.1
2017-Oct-17 16:30N 39°11' W 076°31'0 0.4
2017-Oct-17 16:00N 39°11' W 076°31'1 1.3
2017-Oct-17 15:30N 39°11' W 076°31'3 5.0
2017-Oct-17 15:00N 39°13' W 076°33'1 2.9
2017-Oct-17 14:30N 39°13' W 076°35'2 3.7
2017-Oct-17 13:59N 39°13' W 076°32'0 0.0
2017-Oct-17 13:29N 39°13' W 076°32'0 0.0
2017-Oct-17 13:00N 39°13' W 076°32'0 0.0
2017-Oct-17 12:30N 39°13' W 076°32'1 1.1
2017-Oct-17 12:00N 39°13' W 076°33'2 3.0
2017-Oct-17 11:30N 39°13' W 076°35'3 5.4
2017-Oct-17 11:00N 39°13' W 076°31'2 3.6
2017-Oct-17 10:30N 39°11' W 076°31'0 0.0
2017-Oct-17 10:00N 39°11' W 076°31'1 1.5
2017-Oct-17 09:30N 39°11' W 076°31'2 3.7
2017-Oct-17 09:00N 39°13' W 076°32'0 0.0
2017-Oct-17 08:29N 39°13' W 076°32'0 0.0
2017-Oct-17 07:55N 39°13' W 076°32'0 0.0
2017-Oct-17 07:30N 39°13' W 076°32'0 0.0
2017-Oct-17 06:59N 39°13' W 076°32'0 0.0
2017-Oct-17 06:29N 39°13' W 076°32'0 0.0
2017-Oct-17 05:53N 39°13' W 076°32'0 0.0
2017-Oct-17 05:28N 39°13' W 076°32'0 0.0
2017-Oct-17 04:23N 39°13' W 076°32'0 0.0
2017-Oct-17 03:53N 39°13' W 076°32'0 0.0
2017-Oct-17 03:16N 39°13' W 076°32'0 0.0
2017-Oct-17 02:58N 39°13' W 076°32'0 0.0
2017-Oct-17 02:29N 39°13' W 076°32'0 0.0
2017-Oct-17 01:58N 39°13' W 076°32'0 0.0
2017-Oct-17 01:30N 39°13' W 076°32'0 0.0
2017-Oct-17 00:57N 39°13' W 076°32'0 0.0
2017-Oct-17 00:28N 39°13' W 076°32'0 0.0
2017-Oct-17 00:00N 39°13' W 076°32'0 0.0
2017-Oct-16 23:24N 39°13' W 076°32'2 2.4
2017-Oct-16 22:33N 39°11' W 076°31'0 0.1
2017-Oct-16 22:27N 39°11' W 076°31'0 0.0
2017-Oct-16 20:18N 39°11' W 076°31'1 1.5
2017-Oct-16 19:55N 39°11' W 076°31'2 4.9
2017-Oct-16 19:30N 39°13' W 076°32'2 4.2
2017-Oct-16 19:00N 39°13' W 076°35'0 0.1
2017-Oct-16 18:28N 39°13' W 076°35'0 0.0
2017-Oct-16 18:00N 39°13' W 076°35'0 0.0
2017-Oct-16 17:30N 39°13' W 076°35'2 0.4
2017-Oct-16 13:02N 39°13' W 076°32'0 1.5
2017-Oct-16 12:57N 39°13' W 076°32'2 4.6
2017-Oct-16 12:30N 39°14' W 076°35'0 0.0
2017-Oct-16 12:00N 39°14' W 076°35'0 0.0
2017-Oct-16 11:30N 39°14' W 076°35'0 0.0
2017-Oct-16 11:00N 39°14' W 076°35'0 0.0
2017-Oct-16 10:30N 39°14' W 076°35'0 0.0
2017-Oct-16 10:00N 39°14' W 076°35'0 0.0
2017-Oct-16 09:30N 39°14' W 076°35'0 0.0
2017-Oct-16 09:00N 39°14' W 076°35'0 0.0
2017-Oct-16 08:30N 39°14' W 076°35'0 0.0
2017-Oct-16 08:00N 39°14' W 076°35'0 0.0
2017-Oct-16 07:30N 39°14' W 076°35'0 0.0
2017-Oct-16 07:00N 39°14' W 076°35'0 0.0
2017-Oct-16 06:30N 39°14' W 076°35'0 0.0
2017-Oct-16 06:00N 39°14' W 076°35'0 0.0
2017-Oct-16 05:30N 39°14' W 076°35'0 0.0
2017-Oct-16 05:00N 39°14' W 076°35'0 0.0
2017-Oct-16 04:30N 39°14' W 076°35'0 0.0
2017-Oct-16 04:00N 39°14' W 076°35'0 0.0
2017-Oct-16 03:31N 39°14' W 076°35'0 0.0
2017-Oct-16 03:00N 39°14' W 076°35'0 0.0
2017-Oct-16 02:30N 39°14' W 076°35'0 0.0
2017-Oct-16 02:00N 39°14' W 076°35'0 0.0
2017-Oct-16 01:31N 39°14' W 076°35'0 0.0
2017-Oct-16 01:00N 39°14' W 076°35'0 0.0
2017-Oct-16 00:30N 39°14' W 076°35'0 0.0
2017-Oct-16 00:00N 39°14' W 076°35'0 0.0
2017-Oct-15 23:30N 39°14' W 076°35'0 0.0
2017-Oct-15 23:00N 39°14' W 076°35'2 4.2
2017-Oct-15 22:30N 39°13' W 076°32'0 0.1
2017-Oct-15 20:17N 39°13' W 076°32'0 0.0
2017-Oct-15 20:00N 39°13' W 076°32'0 0.0
2017-Oct-15 19:29N 39°13' W 076°32'2 3.8
2017-Oct-15 19:00N 39°13' W 076°35'1 1.7
2017-Oct-15 18:30N 39°13' W 076°34'3 3.6
2017-Oct-15 17:39N 39°11' W 076°31'0 0.3
2017-Oct-15 17:21N 39°11' W 076°31'0 0.4
2017-Oct-15 16:57N 39°11' W 076°31'0 0.2
2017-Oct-15 16:01N 39°11' W 076°31'0 1.2
2017-Oct-15 15:59N 39°11' W 076°31'1 3.1
2017-Oct-15 15:30N 39°12' W 076°31'3 5.7
2017-Oct-15 15:00N 39°13' W 076°35'0 0.3
2017-Oct-15 14:00N 39°14' W 076°35'0 0.0
2017-Oct-15 13:30N 39°14' W 076°35'0 0.0
2017-Oct-15 13:00N 39°14' W 076°35'0 0.0
2017-Oct-15 12:30N 39°14' W 076°35'0 0.0
2017-Oct-15 12:00N 39°14' W 076°35'0 0.0
2017-Oct-15 11:30N 39°14' W 076°35'0 0.0
2017-Oct-15 11:00N 39°14' W 076°35'2 4.0
2017-Oct-15 10:30N 39°13' W 076°32'2 3.5
2017-Oct-15 09:59N 39°13' W 076°35'0 0.0
2017-Oct-15 09:29N 39°13' W 076°35'0 0.0
2017-Oct-15 09:00N 39°13' W 076°35'0 0.0
2017-Oct-15 08:28N 39°13' W 076°35'0 0.0
2017-Oct-15 07:47N 39°13' W 076°35'0 0.0
2017-Oct-15 07:04N 39°13' W 076°35'0 0.1
2017-Oct-15 06:56N 39°13' W 076°35'0 0.0
2017-Oct-15 06:17N 39°13' W 076°35'0 0.0
2017-Oct-15 05:58N 39°13' W 076°35'2 4.4
2017-Oct-15 05:30N 39°13' W 076°32'2 4.9
2017-Oct-15 05:00N 39°11' W 076°31'0 0.3
2017-Oct-15 04:30N 39°11' W 076°31'0 0.6
2017-Oct-15 04:00N 39°11' W 076°31'2 4.1
2017-Oct-15 03:30N 39°13' W 076°32'2 4.5
2017-Oct-15 03:00N 39°13' W 076°35'0 0.0
2017-Oct-15 02:30N 39°13' W 076°35'0 0.0
2017-Oct-15 02:00N 39°13' W 076°35'0 0.0
2017-Oct-15 01:30N 39°13' W 076°35'0 0.0
2017-Oct-15 01:00N 39°13' W 076°35'0 0.0
2017-Oct-15 00:30N 39°13' W 076°35'0 0.0
2017-Oct-15 00:00N 39°13' W 076°35'0 0.0
2017-Oct-14 23:30N 39°13' W 076°35'2 3.1
2017-Oct-14 22:53N 39°13' W 076°32'0 0.0
2017-Oct-14 22:10N 39°13' W 076°32'0 0.0
2017-Oct-14 21:56N 39°13' W 076°32'0 0.0
2017-Oct-14 21:30N 39°13' W 076°32'0 0.0
2017-Oct-14 20:59N 39°13' W 076°32'0 0.0
2017-Oct-14 20:30N 39°13' W 076°32'0 0.0
2017-Oct-14 20:00N 39°13' W 076°32'2 4.1
2017-Oct-14 19:30N 39°14' W 076°35'0 0.0
2017-Oct-14 19:00N 39°14' W 076°35'0 0.0
2017-Oct-14 18:30N 39°14' W 076°35'0 0.0
2017-Oct-14 18:00N 39°14' W 076°35'0 0.0
2017-Oct-14 17:30N 39°14' W 076°35'0 0.0
2017-Oct-14 17:00N 39°14' W 076°35'0 0.0
2017-Oct-14 16:30N 39°14' W 076°35'0 0.0
2017-Oct-14 16:00N 39°14' W 076°35'0 0.0
2017-Oct-14 15:30N 39°14' W 076°35'0 0.0
2017-Oct-14 15:00N 39°14' W 076°35'0 0.0
2017-Oct-14 14:30N 39°14' W 076°35'0 0.0
2017-Oct-14 14:00N 39°14' W 076°35'0 0.0
2017-Oct-14 13:30N 39°14' W 076°35'0 0.0
2017-Oct-14 13:00N 39°14' W 076°35'0 0.0
2017-Oct-14 12:30N 39°14' W 076°35'0 0.0
2017-Oct-14 12:00N 39°14' W 076°35'0 0.0
2017-Oct-14 11:30N 39°14' W 076°35'1 1.8
2017-Oct-14 11:00N 39°13' W 076°34'1 2.2
2017-Oct-14 10:30N 39°13' W 076°32'0 0.0
2017-Oct-14 10:00N 39°13' W 076°32'0 0.0
2017-Oct-14 09:27N 39°13' W 076°32'0 0.0
2017-Oct-14 09:00N 39°13' W 076°32'0 0.0
2017-Oct-14 08:28N 39°13' W 076°32'0 0.0
2017-Oct-14 07:46N 39°13' W 076°32'0 0.0
2017-Oct-14 07:30N 39°13' W 076°32'0 0.0
2017-Oct-14 06:57N 39°13' W 076°32'0 0.0
2017-Oct-14 06:27N 39°13' W 076°32'0 0.0
2017-Oct-14 06:00N 39°13' W 076°32'0 0.0
2017-Oct-13 21:10N 39°13' W 076°32'0 0.0
2017-Oct-13 21:00N 39°13' W 076°32'0 0.0
2017-Oct-13 20:30N 39°13' W 076°32'0 0.0
2017-Oct-13 20:00N 39°13' W 076°32'0 0.0
2017-Oct-13 19:30N 39°13' W 076°32'0 0.0
2017-Oct-13 19:00N 39°13' W 076°32'0 0.0
2017-Oct-13 18:30N 39°13' W 076°32'0 0.0
2017-Oct-13 16:47N 39°13' W 076°32'0 0.0
2017-Oct-13 16:29N 39°13' W 076°32'0 0.0
2017-Oct-13 15:20N 39°13' W 076°32'0 0.0
2017-Oct-13 14:56N 39°13' W 076°32'0 0.0
2017-Oct-13 14:22N 39°13' W 076°32'0 0.0
2017-Oct-13 13:57N 39°13' W 076°32'0 0.0
2017-Oct-13 13:27N 39°13' W 076°32'0 0.0
2017-Oct-13 12:59N 39°13' W 076°32'0 0.0
2017-Oct-13 12:29N 39°13' W 076°32'0 0.0
2017-Oct-13 12:00N 39°13' W 076°32'0 0.0
2017-Oct-13 11:16N 39°13' W 076°32'0 0.0
2017-Oct-13 11:00N 39°13' W 076°32'0 0.0
2017-Oct-13 10:30N 39°13' W 076°32'0 0.0
2017-Oct-13 09:59N 39°13' W 076°32'0 0.0
2017-Oct-13 09:30N 39°13' W 076°32'0 0.0
2017-Oct-13 09:00N 39°13' W 076°32'0 0.0
2017-Oct-13 08:30N 39°13' W 076°32'0 0.0
2017-Oct-13 07:57N 39°13' W 076°32'0 0.0
2017-Oct-13 07:29N 39°13' W 076°32'0 0.0
2017-Oct-13 07:00N 39°13' W 076°32'0 0.0
2017-Oct-13 06:30N 39°13' W 076°32'0 0.0
2017-Oct-13 06:00N 39°13' W 076°32'0 0.0
2017-Oct-13 05:30N 39°13' W 076°32'0 0.0
2017-Oct-13 04:53N 39°13' W 076°32'0 0.0
2017-Oct-13 04:30N 39°13' W 076°32'0 0.0
2017-Oct-13 03:53N 39°13' W 076°32'0 0.0
2017-Oct-13 01:40N 39°13' W 076°32'0 0.0
2017-Oct-13 01:30N 39°13' W 076°32'0 0.0
2017-Oct-13 01:00N 39°13' W 076°32'0 0.0
2017-Oct-13 00:30N 39°13' W 076°32'0 0.0
2017-Oct-12 23:59N 39°13' W 076°32'0 0.0
2017-Oct-12 23:16N 39°13' W 076°32'0 0.0
2017-Oct-12 22:58N 39°13' W 076°32'0 0.0
2017-Oct-12 22:19N 39°13' W 076°32'0 0.0
2017-Oct-12 21:56N 39°13' W 076°32'0 0.0
2017-Oct-12 21:24N 39°13' W 076°32'0 0.0
2017-Oct-12 21:00N 39°13' W 076°32'0 0.0
2017-Oct-12 20:30N 39°13' W 076°32'0 0.0
2017-Oct-12 20:00N 39°13' W 076°32'0 0.0
2017-Oct-12 19:30N 39°13' W 076°32'0 0.0
2017-Oct-12 18:46N 39°13' W 076°32'0 0.0
2017-Oct-12 17:26N 39°13' W 076°32'0 0.0
2017-Oct-12 16:51N 39°13' W 076°32'0 0.0
2017-Oct-12 16:12N 39°13' W 076°32'0 0.0
2017-Oct-12 16:00N 39°13' W 076°32'0 0.0
2017-Oct-12 14:29N 39°13' W 076°32'0 0.0
2017-Oct-12 14:00N 39°13' W 076°32'0 0.0
2017-Oct-12 13:13N 39°13' W 076°32'0 0.0
2017-Oct-12 13:00N 39°13' W 076°32'0 0.0
2017-Oct-12 12:30N 39°13' W 076°32'0 0.0
2017-Oct-12 12:00N 39°13' W 076°32'0 0.0
2017-Oct-12 11:30N 39°13' W 076°32'0 0.0
2017-Oct-12 11:00N 39°13' W 076°32'0 0.0
2017-Oct-12 10:30N 39°13' W 076°32'0 0.0
2017-Oct-12 10:00N 39°13' W 076°32'0 0.0
2017-Oct-12 09:30N 39°13' W 076°32'0 0.0
2017-Oct-12 09:00N 39°13' W 076°32'0 0.0
2017-Oct-12 08:29N 39°13' W 076°32'0 0.0
2017-Oct-12 08:00N 39°13' W 076°32'0 0.0
2017-Oct-12 07:30N 39°13' W 076°32'0 0.0
2017-Oct-12 07:00N 39°13' W 076°32'0 0.0
2017-Oct-12 06:30N 39°13' W 076°32'0 0.0
2017-Oct-12 03:22N 39°13' W 076°32'0 0.0
2017-Oct-12 02:58N 39°13' W 076°32'0 0.0
2017-Oct-12 02:30N 39°13' W 076°32'0 0.0
2017-Oct-12 02:00N 39°13' W 076°32'0 0.0
2017-Oct-12 01:29N 39°13' W 076°32'0 0.0
2017-Oct-12 01:00N 39°13' W 076°32'0 0.0
2017-Oct-12 00:30N 39°13' W 076°32'0 0.0
2017-Oct-11 23:59N 39°13' W 076°32'0 0.0
2017-Oct-11 22:32N 39°13' W 076°32'0 0.2
2017-Oct-11 22:29N 39°13' W 076°32'0 0.0
2017-Oct-11 21:36N 39°13' W 076°32'0 0.0
2017-Oct-11 21:25N 39°13' W 076°32'0 0.0
2017-Oct-11 20:55N 39°13' W 076°32'0 0.0
2017-Oct-11 20:30N 39°13' W 076°32'0 0.0
2017-Oct-11 20:00N 39°13' W 076°32'0 0.0
2017-Oct-11 19:28N 39°13' W 076°32'0 0.0
2017-Oct-11 19:00N 39°13' W 076°32'0 0.0
2017-Oct-11 18:30N 39°13' W 076°32'0 0.3
2017-Oct-11 18:00N 39°13' W 076°32'2 3.7
2017-Oct-11 17:30N 39°12' W 076°31'1 1.5
2017-Oct-11 17:00N 39°11' W 076°31'2 0.1
2017-Oct-10 23:58N 39°13' W 076°32'0 0.0
2017-Oct-10 18:35N 39°13' W 076°32'0 0.0
2017-Oct-10 18:23N 39°13' W 076°32'0 0.5
2017-Oct-10 18:00N 39°13' W 076°32'0 0.4
2017-Oct-10 17:30N 39°13' W 076°32'0 0.3
2017-Oct-10 17:00N 39°13' W 076°32'0 0.1
2017-Oct-10 15:55N 39°13' W 076°32'0 0.0
2017-Oct-10 15:26N 39°13' W 076°32'0 0.0
2017-Oct-10 14:55N 39°13' W 076°32'0 0.0
2017-Oct-10 14:00N 39°13' W 076°32'0 0.0
2017-Oct-10 13:30N 39°13' W 076°32'0 0.0
2017-Oct-10 13:00N 39°13' W 076°32'0 0.0
2017-Oct-10 12:30N 39°13' W 076°32'0 0.0
2017-Oct-10 12:00N 39°13' W 076°32'0 0.0
2017-Oct-10 11:29N 39°13' W 076°32'0 0.0
2017-Oct-10 11:00N 39°13' W 076°32'0 0.0
2017-Oct-10 10:30N 39°13' W 076°32'0 0.0
2017-Oct-10 10:00N 39°13' W 076°32'0 0.0
2017-Oct-10 09:31N 39°13' W 076°32'0 0.0
2017-Oct-10 09:00N 39°13' W 076°32'0 0.0
2017-Oct-10 08:30N 39°13' W 076°32'0 0.0
2017-Oct-10 08:00N 39°13' W 076°32'0 0.0
2017-Oct-10 07:30N 39°13' W 076°32'0 0.0
2017-Oct-10 07:00N 39°13' W 076°32'0 0.0
2017-Oct-10 06:30N 39°13' W 076°32'0 0.0
2017-Oct-10 06:00N 39°13' W 076°32'0 0.0
2017-Oct-10 05:30N 39°13' W 076°32'0 0.0
2017-Oct-10 05:01N 39°13' W 076°32'0 0.0
2017-Oct-10 04:30N 39°13' W 076°32'0 0.0
2017-Oct-10 04:01N 39°13' W 076°32'0 0.0
2017-Oct-10 03:30N 39°13' W 076°32'0 0.0
2017-Oct-10 03:00N 39°13' W 076°32'0 0.0
2017-Oct-10 02:30N 39°13' W 076°32'0 0.0
2017-Oct-10 02:00N 39°13' W 076°32'0 0.0
2017-Oct-10 01:30N 39°13' W 076°32'0 0.0
2017-Oct-10 01:00N 39°13' W 076°32'0 0.0
2017-Oct-10 00:31N 39°13' W 076°32'0 0.0
2017-Oct-10 00:00N 39°13' W 076°32'0 0.0
2017-Oct-09 23:30N 39°13' W 076°32'0 0.0
2017-Oct-09 23:01N 39°13' W 076°32'0 0.0
2017-Oct-09 22:25N 39°13' W 076°32'0 0.0
2017-Oct-09 21:56N 39°13' W 076°32'0 0.0
2017-Oct-09 21:05N 39°13' W 076°32'0 0.0
2017-Oct-09 20:59N 39°13' W 076°32'0 0.0
2017-Oct-09 20:28N 39°13' W 076°32'0 0.0
2017-Oct-09 19:50N 39°13' W 076°32'0 0.0
2017-Oct-09 19:21N 39°13' W 076°32'0 0.0
2017-Oct-09 19:00N 39°13' W 076°32'0 0.0
2017-Oct-09 18:25N 39°13' W 076°32'0 0.0
2017-Oct-09 17:57N 39°13' W 076°32'0 0.0
2017-Oct-09 17:30N 39°13' W 076°32'0 0.0
2017-Oct-09 17:00N 39°13' W 076°32'0 0.0
2017-Oct-09 16:29N 39°13' W 076°32'0 0.0
2017-Oct-09 15:58N 39°13' W 076°32'0 0.0
2017-Oct-09 15:20N 39°13' W 076°32'0 0.0
2017-Oct-09 14:58N 39°13' W 076°32'0 0.0
2017-Oct-09 10:24N 39°13' W 076°32'0 0.0
2017-Oct-09 09:57N 39°13' W 076°32'0 0.0
2017-Oct-09 09:30N 39°13' W 076°32'0 0.0
2017-Oct-09 08:54N 39°13' W 076°32'0 0.0
2017-Oct-09 08:29N 39°13' W 076°32'0 0.0
2017-Oct-09 08:00N 39°13' W 076°32'0 0.0
2017-Oct-09 07:29N 39°13' W 076°32'0 0.0
2017-Oct-09 06:57N 39°13' W 076°32'0 0.0
2017-Oct-09 06:29N 39°13' W 076°32'0 0.0
2017-Oct-09 05:59N 39°13' W 076°32'0 0.0
2017-Oct-09 05:28N 39°13' W 076°32'0 0.0
2017-Oct-09 04:33N 39°13' W 076°32'0 0.1
2017-Oct-09 04:23N 39°13' W 076°32'0 0.0
2017-Oct-09 03:50N 39°13' W 076°32'0 0.0
2017-Oct-09 03:30N 39°13' W 076°32'0 0.0
2017-Oct-09 02:46N 39°13' W 076°32'0 0.0
2017-Oct-09 02:13N 39°13' W 076°32'0 0.0
2017-Oct-09 01:50N 39°13' W 076°32'0 0.0
2017-Oct-09 01:10N 39°13' W 076°32'0 0.0
2017-Oct-09 00:47N 39°13' W 076°32'0 0.0
2017-Oct-08 23:13N 39°13' W 076°32'0 0.0
2017-Oct-08 22:55N 39°13' W 076°32'0 0.0
2017-Oct-08 22:17N 39°13' W 076°32'0 0.0
2017-Oct-08 21:56N 39°13' W 076°32'0 0.0
2017-Oct-08 21:24N 39°13' W 076°32'0 0.0
2017-Oct-08 20:49N 39°13' W 076°32'0 0.0
2017-Oct-08 20:21N 39°13' W 076°32'0 0.0
2017-Oct-08 19:58N 39°13' W 076°32'0 0.0
2017-Oct-08 19:27N 39°13' W 076°32'0 0.0
2017-Oct-08 18:57N 39°13' W 076°32'0 0.0
2017-Oct-08 18:24N 39°13' W 076°32'1 1.9
2017-Oct-08 17:59N 39°13' W 076°31'1 1.1
2017-Oct-08 17:18N 39°13' W 076°32'0 0.0
2017-Oct-08 16:53N 39°13' W 076°32'0 0.0
2017-Oct-08 13:45N 39°13' W 076°32'1 3.6
2017-Oct-08 13:31N 39°13' W 076°33'1 2.2
2017-Oct-08 13:01N 39°13' W 076°35'  

Dump ship's entire track history